Time;durP1;ratioP1;P1;durP2;ratioP2;P2;SDS_P1;SDS_P2;PMS_P1;PMS_P2;Temp;Humidity;BMP_temperature;BMP_pressure;BME280_temperature;BME280_humidity;BME280_pressure;Samples;Min_cycle;Max_cycle;Signal;HPM_P1;HPM_P2
2023/03/13 00:00:09;;;;;;;;;;;;;;;7.15;82.21;100853.34;5099956;27;19930;-69
2023/03/13 00:02:34;;;;;;;;;;;;;;;7.18;82.53;100854.41;5089695;28;19919;-70
2023/03/13 00:04:59;;;;;;;;;;;;;;;7.13;83.23;100860.97;5091033;28;20356;-70
2023/03/13 00:07:25;;;;;;;;;;;;;;;7.05;83.93;100851.94;5111059;28;19954;-70
2023/03/13 00:09:50;;;;;;;;;;;;;;;6.99;84.21;100856.69;5111082;28;19955;-70
2023/03/13 00:12:16;;;;;;;;;;;;;;;6.81;84.60;100862.53;5111477;28;20354;-68
2023/03/13 00:14:42;;;;;;;;;;;;;;;6.63;84.59;100863.25;5111135;28;19960;-68
2023/03/13 00:17:07;;;;;;;;;;;;;;;6.29;85.88;100861.22;5095968;28;19919;-69
2023/03/13 00:19:32;;;;;;;;;;;;;;;6.25;86.27;100863.50;5093412;28;20605;-69
2023/03/13 00:21:57;;;;;;;;;;;;;;;6.20;86.05;100870.03;5101207;28;20061;-69
2023/03/13 00:24:23;;;;;;;;;;;;;;;6.24;86.07;100871.97;5106101;28;19915;-69
2023/03/13 00:26:48;;;;;;;;;;;;;;;6.40;85.00;100873.81;5074972;28;20066;-69
2023/03/13 00:29:13;;;;;;;;;;;;;;;6.54;83.91;100872.06;5110548;28;19904;-69
2023/03/13 00:31:38;;;;;;;;;;;;;;;6.64;82.88;100872.72;5110656;28;19961;-69
2023/03/13 00:34:04;;;;;;;;;;;;;;;6.68;82.27;100866.09;5110472;28;20559;-69
2023/03/13 00:36:31;;;;;;;;;;;;;;;6.75;82.19;100868.22;5110837;28;19919;-69
2023/03/13 00:38:56;;;;;;;;;;;;;;;6.90;81.45;100870.78;5110552;28;20457;-69
2023/03/13 00:41:23;;;;;;;;;;;;;;;7.02;80.64;100870.59;5110896;28;19923;-69
2023/03/13 00:43:48;;;;;;;;;;;;;;;7.04;80.22;100868.13;5110458;28;19926;-69
2023/03/13 00:46:15;;;;;;;;;;;;;;;6.85;81.16;100869.63;5110558;28;19912;-69
2023/03/13 00:48:41;;;;;;;;;;;;;;;6.68;82.08;100870.31;5110839;28;19915;-69
2023/03/13 00:51:06;;;;;;;;;;;;;;;6.53;83.06;100866.06;5112298;28;20369;-69
2023/03/13 00:53:32;;;;;;;;;;;;;;;6.40;84.38;100858.41;5096247;28;20003;-69
2023/03/13 00:55:59;;;;;;;;;;;;;;;6.32;85.40;100868.22;5095183;28;19976;-69
2023/03/13 00:58:25;;;;;;;;;;;;;;;6.11;86.30;100866.09;5114464;28;19912;-69
2023/03/13 01:00:50;;;;;;;;;;;;;;;5.85;87.88;100876.41;5086082;28;19920;-69
2023/03/13 01:03:15;;;;;;;;;;;;;;;5.80;88.17;100870.97;5094492;28;20251;-69
2023/03/13 01:05:41;;;;;;;;;;;;;;;5.81;88.23;100875.31;5094221;28;19943;-69
2023/03/13 01:08:06;;;;;;;;;;;;;;;5.69;88.00;100872.88;5093966;28;19965;-69
2023/03/13 01:10:32;;;;;;;;;;;;;;;5.61;88.18;100879.19;5093926;28;19912;-69
2023/03/13 01:12:58;;;;;;;;;;;;;;;5.35;89.05;100876.72;5093862;28;20858;-69
2023/03/13 01:15:23;;;;;;;;;;;;;;;5.42;88.91;100888.25;5093786;28;19977;-69
2023/03/13 01:17:49;;;;;;;;;;;;;;;5.47;87.82;100891.09;5075581;28;19920;-69
2023/03/13 01:20:14;;;;;;;;;;;;;;;5.50;87.08;100889.63;5093499;28;19912;-69
2023/03/13 01:22:39;;;;;;;;;;;;;;;5.48;87.06;100890.31;5093607;28;20277;-69
2023/03/13 01:25:05;;;;;;;;;;;;;;;5.44;87.43;100896.91;5075609;28;20354;-69
2023/03/13 01:27:30;;;;;;;;;;;;;;;5.46;87.43;100891.91;5093628;28;19912;-70
2023/03/13 01:29:56;;;;;;;;;;;;;;;5.43;87.33;100892.59;5093771;28;19985;-69
2023/03/13 01:32:21;;;;;;;;;;;;;;;5.10;89.83;100891.28;5093251;28;19965;-69
2023/03/13 01:34:46;;;;;;;;;;;;;;;4.87;91.93;100893.19;5075378;28;20271;-69
2023/03/13 01:37:12;;;;;;;;;;;;;;;4.94;92.06;100895.38;5093385;28;19908;-69
2023/03/13 01:39:37;;;;;;;;;;;;;;;5.04;92.13;100899.44;5086593;28;19916;-69
2023/03/13 01:42:03;;;;;;;;;;;;;;;5.01;92.27;100905.25;5073002;28;19909;-69
2023/03/13 01:44:28;;;;;;;;;;;;;;;5.09;92.77;100909.97;5084874;28;20383;-69
2023/03/13 01:46:54;;;;;;;;;;;;;;;5.16;92.08;100913.03;5071469;28;19966;-69
2023/03/13 01:49:32;;;;;;;;;;;;;;;5.26;91.43;100914.53;5072706;28;20015;-69
2023/03/13 01:52:00;;;;;;;;;;;;;;;5.31;91.46;100917.41;5024201;28;19913;-69
2023/03/13 01:54:36;;;;;;;;;;;;;;;5.33;91.04;100923.50;5071471;28;20672;-69
2023/03/13 01:57:04;;;;;;;;;;;;;;;5.33;91.44;100920.94;5091150;28;19970;-69
2023/03/13 01:59:36;;;;;;;;;;;;;;;5.34;91.78;100928.69;5093342;28;20014;-69
2023/03/13 02:02:02;;;;;;;;;;;;;;;5.40;91.23;100937.59;5107562;28;20374;-69
2023/03/13 02:04:30;;;;;;;;;;;;;;;5.43;91.46;100931.00;5113393;28;19940;-69
2023/03/13 02:06:57;;;;;;;;;;;;;;;5.30;91.91;100933.56;5113001;28;19923;-69
2023/03/13 02:09:25;;;;;;;;;;;;;;;5.28;93.67;100938.56;5112877;28;19919;-69
2023/03/13 02:12:06;;;;;;;;;;;;;;;5.47;94.08;100939.75;5112822;28;19911;-68
2023/03/13 02:14:33;;;;;;;;;;;;;;;5.48;94.49;100945.00;5101005;28;20258;-68
2023/03/13 02:16:59;;;;;;;;;;;;;;;5.46;94.74;100949.13;5112952;28;19912;-69
2023/03/13 02:19:31;;;;;;;;;;;;;;;5.49;94.83;100958.69;5113104;28;19919;-69
2023/03/13 02:22:00;;;;;;;;;;;;;;;5.54;94.22;100966.66;5113374;28;20048;-69
2023/03/13 02:24:28;;;;;;;;;;;;;;;5.58;93.89;100964.41;5112610;28;19926;-68
2023/03/13 02:26:53;;;;;;;;;;;;;;;5.54;93.77;100964.97;5112773;28;19915;-69
2023/03/13 02:29:19;;;;;;;;;;;;;;;5.50;93.46;100974.13;5112597;28;19911;-68
2023/03/13 02:31:45;;;;;;;;;;;;;;;5.58;92.97;100979.78;5093642;28;19911;-69
2023/03/13 02:34:12;;;;;;;;;;;;;;;5.57;92.27;100988.25;5112193;28;20366;-68
2023/03/13 02:36:37;;;;;;;;;;;;;;;5.47;91.97;100981.63;5112565;28;19916;-69
2023/03/13 02:39:04;;;;;;;;;;;;;;;5.41;91.91;100982.88;5112626;28;20425;-68
2023/03/13 02:41:31;;;;;;;;;;;;;;;5.30;92.01;100982.19;5112667;28;19920;-68
2023/03/13 02:43:56;;;;;;;;;;;;;;;5.25;91.84;100984.44;5112661;28;19912;-68
2023/03/13 02:46:22;;;;;;;;;;;;;;;5.26;91.37;100990.44;5112451;28;20392;-68
2023/03/13 02:48:52;;;;;;;;;;;;;;;5.26;90.94;100996.47;5112343;28;19955;-68
2023/03/13 02:51:26;;;;;;;;;;;;;;;5.26;90.22;100993.00;5112133;28;19994;-68
2023/03/13 02:53:53;;;;;;;;;;;;;;;5.20;90.97;100996.03;5112534;28;20356;-68
2023/03/13 02:56:21;;;;;;;;;;;;;;;5.26;91.00;101006.69;5112739;28;19908;-69
2023/03/13 02:58:46;;;;;;;;;;;;;;;5.31;91.32;101005.31;5112382;28;19919;-69
2023/03/13 03:01:11;;;;;;;;;;;;;;;5.37;91.15;100999.75;5112247;28;19920;-69
2023/03/13 03:03:37;;;;;;;;;;;;;;;5.37;89.75;101003.97;5111830;28;19920;-69
2023/03/13 03:06:03;;;;;;;;;;;;;;;5.18;90.85;101012.97;5111579;28;19916;-68
2023/03/13 03:08:29;;;;;;;;;;;;;;;5.08;91.58;101008.88;5111561;28;19912;-69
2023/03/13 03:10:54;;;;;;;;;;;;;;;4.89;93.25;101019.56;5111871;28;19972;-68
2023/03/13 03:13:19;;;;;;;;;;;;;;;4.82;94.51;101027.59;5111550;28;20673;-68
2023/03/13 03:15:44;;;;;;;;;;;;;;;4.61;95.31;101026.97;5112107;28;19922;-69
2023/03/13 03:18:10;;;;;;;;;;;;;;;4.55;95.57;101032.56;5111760;28;20354;-68
2023/03/13 03:20:35;;;;;;;;;;;;;;;4.50;94.92;101034.78;5111493;28;19974;-69
2023/03/13 03:23:00;;;;;;;;;;;;;;;4.51;94.07;101033.09;5111572;28;19915;-68
2023/03/13 03:25:25;;;;;;;;;;;;;;;4.41;94.41;101033.25;5111980;28;19915;-68
2023/03/13 03:27:51;;;;;;;;;;;;;;;4.44;94.59;101025.81;5111911;28;20353;-68
2023/03/13 03:30:16;;;;;;;;;;;;;;;4.45;96.26;101025.91;5111676;28;19923;-68
2023/03/13 03:32:41;;;;;;;;;;;;;;;4.57;97.19;101042.91;5111619;28;19916;-69
2023/03/13 03:35:07;;;;;;;;;;;;;;;4.67;96.10;101048.78;5111795;28;20353;-68
2023/03/13 03:37:32;;;;;;;;;;;;;;;4.77;96.88;101039.16;5111436;28;19912;-69
2023/03/13 03:39:57;;;;;;;;;;;;;;;4.77;94.19;101052.88;5111428;28;19918;-69
2023/03/13 03:42:23;;;;;;;;;;;;;;;4.71;94.27;101055.00;5110975;28;19916;-69
2023/03/13 03:44:48;;;;;;;;;;;;;;;4.75;95.57;101056.06;5111688;28;19915;-68
2023/03/13 03:47:13;;;;;;;;;;;;;;;4.82;96.59;101055.72;5111382;28;19915;-69
2023/03/13 03:49:38;;;;;;;;;;;;;;;4.89;95.49;101057.94;5111056;28;19918;-69
2023/03/13 03:52:04;;;;;;;;;;;;;;;4.84;94.91;101062.72;5111159;28;19911;-68
2023/03/13 03:54:29;;;;;;;;;;;;;;;4.72;95.54;101061.00;5111673;28;20313;-68
2023/03/13 03:56:54;;;;;;;;;;;;;;;4.61;96.34;101065.34;5111269;28;19912;-68
2023/03/13 03:59:20;;;;;;;;;;;;;;;4.51;97.22;101068.91;5111051;28;19903;-69
2023/03/13 04:01:46;;;;;;;;;;;;;;;4.47;97.77;101075.47;5110669;28;19926;-69
2023/03/13 04:04:11;;;;;;;;;;;;;;;4.45;98.26;101081.25;5110950;28;19937;-69
2023/03/13 04:06:36;;;;;;;;;;;;;;;4.47;98.22;101082.25;5111143;28;19975;-69
2023/03/13 04:09:01;;;;;;;;;;;;;;;4.41;97.45;101077.63;5110806;28;19912;-69
2023/03/13 04:11:27;;;;;;;;;;;;;;;4.42;97.17;101081.06;5111035;28;19912;-68
2023/03/13 04:13:52;;;;;;;;;;;;;;;4.36;97.01;101076.38;5110432;28;20366;-68
2023/03/13 04:16:17;;;;;;;;;;;;;;;4.16;98.03;101083.53;5092561;28;19912;-69
2023/03/13 04:18:42;;;;;;;;;;;;;;;4.11;98.81;101076.28;5110571;28;19911;-68
2023/03/13 04:21:08;;;;;;;;;;;;;;;4.15;98.71;101076.63;5110391;28;20002;-68
2023/03/13 04:23:33;;;;;;;;;;;;;;;4.15;98.49;101088.50;5110855;28;19919;-68
2023/03/13 04:25:58;;;;;;;;;;;;;;;4.12;98.19;101083.16;5110019;28;19912;-69
2023/03/13 04:28:23;;;;;;;;;;;;;;;4.03;98.11;101086.81;5110978;28;19951;-68
2023/03/13 04:30:49;;;;;;;;;;;;;;;4.06;98.26;101086.16;5109108;28;19916;-69
2023/03/13 04:33:15;;;;;;;;;;;;;;;4.11;97.54;101089.97;5101326;28;20443;-68
2023/03/13 04:35:41;;;;;;;;;;;;;;;4.07;96.66;101090.50;5106599;28;19915;-68
2023/03/13 04:38:06;;;;;;;;;;;;;;;3.96;96.41;101101.59;5092568;28;19918;-68
2023/03/13 04:40:31;;;;;;;;;;;;;;;3.76;97.90;101111.22;5092305;28;19908;-68
2023/03/13 04:42:56;;;;;;;;;;;;;;;3.69;98.73;101107.31;5110243;28;19911;-68
2023/03/13 04:45:22;;;;;;;;;;;;;;;3.56;99.15;101110.63;5110260;28;19943;-68
2023/03/13 04:47:47;;;;;;;;;;;;;;;3.52;98.56;101118.81;5110582;28;19919;-68
2023/03/13 04:50:12;;;;;;;;;;;;;;;3.52;98.03;101117.94;5101928;28;20814;-68
2023/03/13 04:52:38;;;;;;;;;;;;;;;3.30;98.07;101123.06;5105896;28;20455;-68
2023/03/13 04:55:03;;;;;;;;;;;;;;;3.18;98.96;101123.03;5111033;28;20018;-68
2023/03/13 04:57:28;;;;;;;;;;;;;;;3.10;99.70;101134.28;5107159;28;19941;-68
2023/03/13 04:59:53;;;;;;;;;;;;;;;3.01;100.00;101137.00;5110849;28;19943;-68
2023/03/13 05:02:19;;;;;;;;;;;;;;;2.79;100.00;101127.69;5110546;28;19920;-68
2023/03/13 05:04:44;;;;;;;;;;;;;;;2.79;100.00;101129.34;5110099;28;19912;-68
2023/03/13 05:07:09;;;;;;;;;;;;;;;2.86;100.00;101129.06;5110313;28;19934;-69
2023/03/13 05:09:35;;;;;;;;;;;;;;;2.89;100.00;101132.75;5110070;28;19911;-69
2023/03/13 05:12:00;;;;;;;;;;;;;;;2.95;100.00;101133.97;5110382;28;19960;-68
2023/03/13 05:14:25;;;;;;;;;;;;;;;2.99;100.00;101147.09;5110433;28;19976;-68
2023/03/13 05:16:51;;;;;;;;;;;;;;;3.17;100.00;101149.31;5110454;28;19916;-77
2023/03/13 05:19:16;;;;;;;;;;;;;;;3.31;100.00;101163.13;5109949;28;19912;-69
2023/03/13 05:21:41;;;;;;;;;;;;;;;3.37;100.00;101167.03;5110367;28;19911;-68
2023/03/13 05:24:06;;;;;;;;;;;;;;;3.29;100.00;101172.31;5110292;28;19922;-68
2023/03/13 05:26:32;;;;;;;;;;;;;;;3.51;100.00;101167.22;5110224;28;19912;-69
2023/03/13 05:28:57;;;;;;;;;;;;;;;3.71;100.00;101166.16;5110479;28;19911;-69
2023/03/13 05:31:22;;;;;;;;;;;;;;;3.88;100.00;101170.00;5110334;28;19998;-69
2023/03/13 05:33:47;;;;;;;;;;;;;;;4.00;100.00;101163.25;5110056;28;19916;-69
2023/03/13 05:36:13;;;;;;;;;;;;;;;4.13;97.92;101165.06;5110236;28;20369;-69
2023/03/13 05:38:38;;;;;;;;;;;;;;;4.27;98.86;101173.72;5113202;28;20325;-69
2023/03/13 05:41:04;;;;;;;;;;;;;;;4.30;97.49;101181.63;5113863;28;19935;-68
2023/03/13 05:43:29;;;;;;;;;;;;;;;4.30;97.37;101189.31;5114232;28;19922;-68
2023/03/13 05:45:54;;;;;;;;;;;;;;;4.30;97.47;101185.84;5113682;28;19955;-69
2023/03/13 05:48:20;;;;;;;;;;;;;;;4.29;98.24;101184.97;5114178;28;19941;-69
2023/03/13 05:50:46;;;;;;;;;;;;;;;4.27;98.83;101180.53;5113735;28;19999;-69
2023/03/13 05:53:11;;;;;;;;;;;;;;;4.28;99.36;101188.28;5095493;28;19934;-69
2023/03/13 05:55:36;;;;;;;;;;;;;;;4.26;100.00;101182.19;5095509;28;20432;-69
2023/03/13 05:58:02;;;;;;;;;;;;;;;4.36;100.00;101184.66;5113891;28;20370;-69
2023/03/13 06:00:27;;;;;;;;;;;;;;;4.53;99.39;101188.41;5113361;28;19912;-69
2023/03/13 06:02:52;;;;;;;;;;;;;;;4.65;98.55;101178.19;5113362;28;19916;-69
2023/03/13 06:05:17;;;;;;;;;;;;;;;4.60;98.04;101193.97;5113351;28;20718;-68
2023/03/13 06:07:43;;;;;;;;;;;;;;;4.63;98.58;101199.34;5113822;28;19990;-69
2023/03/13 06:10:09;;;;;;;;;;;;;;;4.76;99.27;101196.88;5094901;28;20362;-69
2023/03/13 06:12:34;;;;;;;;;;;;;;;4.86;98.72;101198.44;5113242;28;20373;-69
2023/03/13 06:15:00;;;;;;;;;;;;;;;4.83;99.17;101199.09;5113459;28;19912;-69
2023/03/13 06:17:25;;;;;;;;;;;;;;;4.97;100.00;101202.66;5093209;28;20038;-69
2023/03/13 06:19:50;;;;;;;;;;;;;;;5.09;98.76;101204.31;5113183;28;19916;-69
2023/03/13 06:22:16;;;;;;;;;;;;;;;5.26;100.00;101196.13;5113366;28;19915;-69
2023/03/13 06:24:43;;;;;;;;;;;;;;;5.42;99.88;101200.66;5113047;28;19915;-69
2023/03/13 06:27:08;;;;;;;;;;;;;;;5.48;97.56;101207.88;5113331;28;19912;-68
2023/03/13 06:29:34;;;;;;;;;;;;;;;5.47;98.00;101212.13;5113125;28;20289;-68
2023/03/13 06:31:59;;;;;;;;;;;;;;;5.58;99.59;101215.44;5112589;28;19937;-68
2023/03/13 06:34:24;;;;;;;;;;;;;;;5.74;98.04;101222.47;5094584;28;20384;-68
2023/03/13 06:36:49;;;;;;;;;;;;;;;5.76;97.47;101222.59;5113023;28;19912;-68
2023/03/13 06:39:15;;;;;;;;;;;;;;;5.72;98.58;101225.72;5112564;28;19973;-69
2023/03/13 06:41:40;;;;;;;;;;;;;;;5.61;99.91;101228.44;5112604;28;20376;-68
2023/03/13 06:44:05;;;;;;;;;;;;;;;5.63;100.00;101226.88;5112927;28;19912;-68
2023/03/13 06:46:31;;;;;;;;;;;;;;;5.64;100.00;101231.19;5113160;28;19912;-69
2023/03/13 06:48:56;;;;;;;;;;;;;;;5.76;100.00;101236.28;5111464;28;19959;-69
2023/03/13 06:51:22;;;;;;;;;;;;;;;5.79;99.99;101239.03;5112320;28;19919;-69
2023/03/13 06:53:47;;;;;;;;;;;;;;;5.91;99.30;101239.00;5094402;28;19911;-69
2023/03/13 06:56:13;;;;;;;;;;;;;;;5.98;96.72;101233.53;5112291;28;19912;-69
2023/03/13 06:58:38;;;;;;;;;;;;;;;6.21;95.78;101235.88;5109566;28;20117;-69
2023/03/13 07:01:10;;;;;;;;;;;;;;;6.46;93.77;101234.13;5109765;28;19926;-69
2023/03/13 07:03:36;;;;;;;;;;;;;;;6.66;90.73;101236.25;5109436;28;19985;-68
2023/03/13 07:06:02;;;;;;;;;;;;;;;6.88;86.67;101235.94;5109813;28;20389;-69
2023/03/13 07:08:28;;;;;;;;;;;;;;;6.94;84.75;101238.91;5109424;28;19960;-69
2023/03/13 07:10:56;;;;;;;;;;;;;;;7.01;85.63;101238.50;5109488;28;19915;-69
2023/03/13 07:13:22;;;;;;;;;;;;;;;7.25;83.39;101239.19;5109443;28;19911;-69
2023/03/13 07:15:47;;;;;;;;;;;;;;;7.13;79.57;101199.91;5109398;28;19948;-69
2023/03/13 07:18:13;;;;;;;;;;;;;;;7.40;79.37;101235.78;5109367;28;20011;-69
2023/03/13 07:20:38;;;;;;;;;;;;;;;7.50;77.01;101242.38;5109363;28;19998;-69
2023/03/13 07:23:04;;;;;;;;;;;;;;;7.47;74.39;101243.06;5109363;28;19912;-69
2023/03/13 07:25:30;;;;;;;;;;;;;;;7.45;76.66;101237.84;5109251;28;19919;-69
2023/03/13 07:27:55;;;;;;;;;;;;;;;7.63;78.34;101242.34;5109195;28;20367;-68
2023/03/13 07:30:21;;;;;;;;;;;;;;;7.82;73.17;101234.06;5110955;28;19919;-69
2023/03/13 07:32:46;;;;;;;;;;;;;;;8.00;73.58;101235.97;5111253;28;19916;-68
2023/03/13 07:35:11;;;;;;;;;;;;;;;8.07;72.52;101246.72;5111233;28;19915;-69
2023/03/13 07:37:37;;;;;;;;;;;;;;;8.34;70.47;101235.41;5111696;28;20015;-68
2023/03/13 07:40:03;;;;;;;;;;;;;;;8.42;72.44;101224.75;5093282;28;19911;-69
2023/03/13 07:42:29;;;;;;;;;;;;;;;8.65;69.47;101226.88;5111623;28;19911;-68
2023/03/13 07:44:54;;;;;;;;;;;;;;;8.86;67.79;101222.06;5111475;28;20399;-68
2023/03/13 07:47:19;;;;;;;;;;;;;;;9.00;68.17;101222.84;5111558;28;19911;-69
2023/03/13 07:49:45;;;;;;;;;;;;;;;9.17;65.64;101227.25;5111763;28;20010;-68
2023/03/13 07:52:11;;;;;;;;;;;;;;;9.36;63.15;101223.97;5111580;28;19997;-67
2023/03/13 07:54:36;;;;;;;;;;;;;;;9.41;61.79;101221.63;5111181;28;20382;-69
2023/03/13 07:57:02;;;;;;;;;;;;;;;9.45;63.97;101228.72;5111050;28;19938;-69
2023/03/13 07:59:27;;;;;;;;;;;;;;;9.63;63.11;101226.25;5110702;28;20297;-69
2023/03/13 08:01:52;;;;;;;;;;;;;;;9.88;60.93;101232.66;5110145;28;20016;-69
2023/03/13 08:04:18;;;;;;;;;;;;;;;9.99;57.13;101225.50;5111304;28;19912;-69
2023/03/13 08:06:43;;;;;;;;;;;;;;;9.88;57.40;101225.84;5111434;28;19911;-69
2023/03/13 08:09:09;;;;;;;;;;;;;;;10.08;58.33;101223.41;5111587;28;19911;-69
2023/03/13 08:14:36;;;;;;;;;;;;;;;10.17;54.10;101210.09;5147740;22;19976;-69
2023/03/13 08:17:02;;;;;;;;;;;;;;;10.16;54.21;101216.91;5091606;28;20342;-69
2023/03/13 08:19:27;;;;;;;;;;;;;;;10.29;56.26;101217.53;5055541;28;19912;-70
2023/03/13 08:21:52;;;;;;;;;;;;;;;10.50;55.82;101208.34;5091813;28;20366;-68
2023/03/13 08:24:18;;;;;;;;;;;;;;;10.63;54.56;101206.31;5091168;28;20053;-69
2023/03/13 08:26:43;;;;;;;;;;;;;;;10.66;54.24;101204.78;5076635;28;19942;-71
2023/03/13 08:29:10;;;;;;;;;;;;;;;10.68;55.84;101204.88;5082787;28;19939;-69
2023/03/13 08:31:42;;;;;;;;;;;;;;;10.35;53.54;101210.09;5091175;28;19923;-69
2023/03/13 08:34:07;;;;;;;;;;;;;;;10.45;55.51;101198.56;5090751;28;19918;-69
2023/03/13 08:36:33;;;;;;;;;;;;;;;10.63;56.13;101206.31;5090688;28;20292;-69
2023/03/13 08:39:01;;;;;;;;;;;;;;;10.42;52.26;101203.56;5090838;28;19969;-69
2023/03/13 08:41:27;;;;;;;;;;;;;;;10.30;54.92;101204.72;5090432;28;19912;-69
2023/03/13 08:43:56;;;;;;;;;;;;;;;10.30;54.63;101203.84;5090377;28;19918;-69
2023/03/13 08:46:22;;;;;;;;;;;;;;;10.33;52.93;101198.81;5091026;28;20465;-69
2023/03/13 08:48:48;;;;;;;;;;;;;;;10.42;51.89;101198.41;5090701;28;19994;-69
2023/03/13 08:51:14;;;;;;;;;;;;;;;10.39;51.18;101188.81;5091149;28;20285;-69
2023/03/13 08:53:40;;;;;;;;;;;;;;;10.50;45.78;101185.09;5090150;28;19927;-68
2023/03/13 08:56:06;;;;;;;;;;;;;;;10.75;49.97;101188.84;5090580;28;19973;-69
2023/03/13 08:58:31;;;;;;;;;;;;;;;10.77;45.38;101181.19;5090873;28;19920;-69
2023/03/13 09:01:01;;;;;;;;;;;;;;;10.78;45.53;101180.34;5090541;28;20010;-69
2023/03/13 09:03:26;;;;;;;;;;;;;;;10.54;48.65;101178.34;5090560;28;19916;-70
2023/03/13 09:05:52;;;;;;;;;;;;;;;10.75;47.28;101186.25;5075314;28;20393;-69
2023/03/13 09:08:18;;;;;;;;;;;;;;;10.93;44.93;101182.75;5070487;28;19913;-69
2023/03/13 09:10:43;;;;;;;;;;;;;;;11.11;46.61;101181.03;5071021;28;19916;-69
2023/03/13 09:13:08;;;;;;;;;;;;;;;11.09;46.88;101186.97;5091830;28;19920;-72
2023/03/13 09:15:33;;;;;;;;;;;;;;;11.18;43.72;101174.47;5094987;28;20002;-71
2023/03/13 09:17:59;;;;;;;;;;;;;;;11.19;42.65;101175.34;5086394;28;20015;-72
2023/03/13 09:20:24;;;;;;;;;;;;;;;11.26;40.47;101172.22;5087983;28;20037;-72
2023/03/13 09:22:50;;;;;;;;;;;;;;;11.33;40.00;101179.47;5093972;28;20358;-72
2023/03/13 09:25:16;;;;;;;;;;;;;;;11.50;38.67;101177.59;5094100;28;19912;-71
2023/03/13 09:27:42;;;;;;;;;;;;;;;11.58;38.59;101167.63;5094023;28;20382;-72
2023/03/13 09:30:07;;;;;;;;;;;;;;;11.67;40.41;101178.38;5094037;28;19945;-72
2023/03/13 09:32:33;;;;;;;;;;;;;;;11.75;40.75;101171.84;5082164;28;19927;-72
2023/03/13 09:34:58;;;;;;;;;;;;;;;11.77;41.80;101167.59;5050036;28;19912;-74
2023/03/13 09:37:24;;;;;;;;;;;;;;;11.77;40.72;101170.19;5093474;28;19912;-73
2023/03/13 09:39:49;;;;;;;;;;;;;;;11.96;39.79;101164.16;5093561;28;19916;-72
2023/03/13 09:42:19;;;;;;;;;;;;;;;12.00;38.25;101159.97;5093597;28;19969;-74
2023/03/13 09:44:48;;;;;;;;;;;;;;;12.12;36.56;101152.72;5093769;28;19911;-72
2023/03/13 09:47:23;;;;;;;;;;;;;;;12.32;35.78;101151.78;5093682;28;20377;-73
2023/03/13 09:49:53;;;;;;;;;;;;;;;12.54;36.45;101150.94;5093301;28;19940;-71
2023/03/13 09:52:26;;;;;;;;;;;;;;;12.74;35.68;101131.88;5092888;28;19925;-72
2023/03/13 09:54:57;;;;;;;;;;;;;;;12.79;35.65;101145.00;5093520;28;19912;-72
2023/03/13 09:57:31;;;;;;;;;;;;;;;12.95;35.57;101147.34;5093402;28;20007;-72
2023/03/13 09:59:59;;;;;;;;;;;;;;;13.06;33.66;101150.38;5072707;28;20394;-73
2023/03/13 10:02:32;;;;;;;;;;;;;;;13.13;35.12;101128.13;5072906;28;19919;-73
2023/03/13 10:05:06;;;;;;;;;;;;;;;12.95;39.77;101154.25;5052931;28;19920;-72
2023/03/13 10:07:32;;;;;;;;;;;;;;;13.13;35.53;101141.09;5093005;28;20009;-71
2023/03/13 10:09:59;;;;;;;;;;;;;;;13.26;33.97;101140.72;5087069;28;20379;-71
2023/03/13 10:12:27;;;;;;;;;;;;;;;13.19;33.45;101138.72;5088323;28;19920;-71
2023/03/13 10:15:13;;;;;;;;;;;;;;;12.99;32.10;101126.75;5088578;28;19916;-72
2023/03/13 10:17:38;;;;;;;;;;;;;;;13.29;33.54;101128.72;5029830;28;19913;-70
2023/03/13 10:20:16;;;;;;;;;;;;;;;13.20;32.04;101124.09;5029589;28;19912;-71
2023/03/13 10:22:45;;;;;;;;;;;;;;;13.31;30.87;101133.13;5029327;28;19920;-71
2023/03/13 10:25:30;;;;;;;;;;;;;;;13.10;29.90;101118.53;5026218;28;20893;-70
2023/03/13 10:27:56;;;;;;;;;;;;;;;12.98;33.77;101118.06;5029101;28;19909;-70
2023/03/13 10:30:46;;;;;;;;;;;;;;;13.33;32.08;101126.28;5009498;28;19913;-70
2023/03/13 10:33:11;;;;;;;;;;;;;;;13.40;32.76;101114.47;5009255;28;19917;-71
2023/03/13 10:35:38;;;;;;;;;;;;;;;13.37;32.69;101117.81;5009016;28;19924;-70
2023/03/13 10:38:11;;;;;;;;;;;;;;;13.20;32.89;101113.72;5007950;28;19918;-71
2023/03/13 10:40:36;;;;;;;;;;;;;;;13.31;32.52;101104.59;5006179;28;19957;-70
2023/03/13 10:43:20;;;;;;;;;;;;;;;13.47;30.11;101097.38;5009259;28;19960;-70
2023/03/13 10:45:45;;;;;;;;;;;;;;;13.72;30.72;101080.94;5008314;28;19913;-70
2023/03/13 10:48:13;;;;;;;;;;;;;;;13.74;30.87;101077.59;5005213;28;19925;-72
2023/03/13 10:50:43;;;;;;;;;;;;;;;13.87;30.70;101075.41;5009289;28;19917;-71
2023/03/13 10:53:27;;;;;;;;;;;;;;;13.97;31.57;101082.66;5009361;28;19919;-71
2023/03/13 10:55:54;;;;;;;;;;;;;;;14.19;32.08;101063.47;5054752;28;19990;-71
2023/03/13 10:58:21;;;;;;;;;;;;;;;14.24;33.64;101063.59;5069145;28;19908;-71
2023/03/13 11:00:47;;;;;;;;;;;;;;;14.16;33.54;101067.69;5071353;28;20472;-70
2023/03/13 11:03:24;;;;;;;;;;;;;;;14.20;34.95;101049.63;5091701;28;19954;-72
2023/03/13 11:05:54;;;;;;;;;;;;;;;14.10;35.63;101057.97;5091669;28;19912;-70
2023/03/13 11:08:22;;;;;;;;;;;;;;;14.19;32.27;101058.28;5073282;28;19957;-71
2023/03/13 11:10:58;;;;;;;;;;;;;;;13.99;32.25;101046.38;5091664;28;19935;-70
2023/03/13 11:13:33;;;;;;;;;;;;;;;14.11;31.65;101048.50;5087905;28;19978;-71
2023/03/13 11:16:03;;;;;;;;;;;;;;;14.04;31.13;101053.50;5091694;28;20014;-69
2023/03/13 11:18:39;;;;;;;;;;;;;;;14.20;33.10;101051.38;5091903;28;20390;-68
2023/03/13 11:21:04;;;;;;;;;;;;;;;14.10;31.46;101050.19;5091927;28;20023;-68
2023/03/13 11:23:30;;;;;;;;;;;;;;;14.38;30.57;101041.56;5091237;28;20008;-70
2023/03/13 11:26:13;;;;;;;;;;;;;;;14.48;31.37;101041.81;5082439;28;19912;-69
2023/03/13 11:28:49;;;;;;;;;;;;;;;14.48;29.99;101042.72;5070795;28;19924;-70
2023/03/13 11:31:28;;;;;;;;;;;;;;;14.44;30.65;101052.97;5072604;28;19966;-69
2023/03/13 11:33:59;;;;;;;;;;;;;;;14.41;31.28;101035.56;5076824;28;19963;-70
2023/03/13 11:36:24;;;;;;;;;;;;;;;14.58;30.14;101036.09;5077379;28;20409;-69
2023/03/13 11:38:57;;;;;;;;;;;;;;;14.80;28.58;101039.31;5090916;28;19916;-69
2023/03/13 11:41:29;;;;;;;;;;;;;;;14.81;29.21;101028.97;5091113;28;20427;-69
2023/03/13 11:43:54;;;;;;;;;;;;;;;14.64;29.88;101018.06;5054718;28;19912;-69
2023/03/13 11:46:25;;;;;;;;;;;;;;;14.29;29.60;101023.06;5076119;28;20071;-69
2023/03/13 11:49:03;;;;;;;;;;;;;;;14.32;29.22;101023.19;5073632;28;19977;-69
2023/03/13 11:51:54;;;;;;;;;;;;;;;14.24;27.09;101011.66;5072354;28;19913;-69
2023/03/13 11:54:36;;;;;;;;;;;;;;;14.35;26.86;101007.69;5041090;28;19920;-69
2023/03/13 11:57:13;;;;;;;;;;;;;;;14.61;27.80;101004.97;5016952;28;19928;-70
2023/03/13 11:59:38;;;;;;;;;;;;;;;14.71;29.04;100995.75;5047747;28;19913;-69
2023/03/13 12:02:09;;;;;;;;;;;;;;;14.76;28.46;100996.78;5037361;28;19917;-70
2023/03/13 12:04:53;;;;;;;;;;;;;;;14.94;27.95;100988.63;5046053;28;20386;-69
2023/03/13 12:07:24;;;;;;;;;;;;;;;15.27;28.99;100976.47;5046188;28;19982;-66
2023/03/13 12:09:49;;;;;;;;;;;;;;;14.64;29.67;100979.09;5034740;28;20029;-69
2023/03/13 12:12:15;;;;;;;;;;;;;;;14.55;33.04;100978.81;5036009;28;19916;-69
2023/03/13 12:14:51;;;;;;;;;;;;;;;14.64;30.84;100967.78;5047569;28;19975;-69
2023/03/13 12:17:27;;;;;;;;;;;;;;;14.71;30.33;100973.25;5031310;28;19920;-69
2023/03/13 12:20:07;;;;;;;;;;;;;;;14.68;30.40;100962.78;5046122;28;19956;-69
2023/03/13 12:22:40;;;;;;;;;;;;;;;14.84;33.36;100966.69;5046584;28;19917;-69
2023/03/13 12:25:11;;;;;;;;;;;;;;;14.65;30.31;100967.00;5030770;28;20007;-68
2023/03/13 12:27:41;;;;;;;;;;;;;;;14.59;30.73;100969.38;5047833;28;19916;-68
2023/03/13 12:30:06;;;;;;;;;;;;;;;14.83;31.76;100964.06;5048916;28;19921;-68
2023/03/13 12:32:34;;;;;;;;;;;;;;;14.72;31.91;100963.75;5089668;28;19912;-68
2023/03/13 12:35:29;;;;;;;;;;;;;;;14.76;32.20;100951.72;5075531;28;19917;-68
2023/03/13 12:38:10;;;;;;;;;;;;;;;14.47;31.69;100946.56;5009369;28;20329;-68
2023/03/13 12:40:54;;;;;;;;;;;;;;;14.59;30.99;100953.81;5007588;28;19948;-68
2023/03/13 12:43:22;;;;;;;;;;;;;;;14.81;31.33;100937.13;5007565;28;19917;-69
2023/03/13 12:45:56;;;;;;;;;;;;;;;14.37;31.35;100948.00;5017895;28;19954;-68